Time;durP1;ratioP1;P1;durP2;ratioP2;P2;SDS_P1;SDS_P2;PMS_P1;PMS_P2;Temp;Humidity;BMP_temperature;BMP_pressure;BME280_temperature;BME280_humidity;BME280_pressure;Samples;Min_cycle;Max_cycle;Signal;HPM_P1;HPM_P2
2022/06/03 00:01:10;;;;;;;1.00;1.00;;;15.50;42.10;;;13.17;46.47;101890.16;12245845;19;20014;-79
2022/06/03 00:05:45;;;;;;;1.23;1.13;;;15.30;42.30;;;12.70;46.57;101822.47;12241287;19;20123;-79
2022/06/03 00:10:24;;;;;;;0.95;0.95;;;15.30;42.30;;;13.01;46.64;101879.53;12246088;19;20010;-79
2022/06/03 00:14:37;;;;;;;0.98;0.80;;;15.10;42.50;;;12.96;46.60;101878.91;12243696;19;20027;-79
2022/06/03 00:19:24;;;;;;;1.17;1.10;;;15.00;42.40;;;12.87;46.73;101879.34;12242872;19;20023;-79
2022/06/03 00:23:52;;;;;;;1.00;1.00;;;15.00;42.70;;;12.73;46.83;101874.72;12242789;19;20035;-79
2022/06/03 00:28:21;;;;;;;1.05;0.93;;;14.90;42.70;;;12.68;46.89;101877.56;12242952;19;20458;-79
2022/06/03 00:33:09;;;;;;;1.23;1.17;;;14.80;42.50;;;12.61;46.81;101884.03;12241699;19;20042;-79
2022/06/03 00:37:36;;;;;;;1.00;1.00;;;14.70;42.70;;;12.60;46.95;101877.91;12241408;19;20518;-79
2022/06/03 00:42:03;;;;;;;0.95;0.95;;;14.70;42.60;;;12.66;46.99;101878.53;12243176;19;20017;-78
2022/06/03 00:46:39;;;;;;;0.95;0.95;;;14.60;43.10;;;12.69;47.15;101867.91;12244724;19;20011;-79
2022/06/03 00:51:17;;;;;;;1.17;1.17;;;14.70;43.10;;;12.68;47.08;101880.19;12243568;19;20015;-79
2022/06/03 00:55:39;;;;;;;0.85;0.85;;;14.70;42.90;;;12.64;47.07;101873.38;12240322;19;20468;-79
2022/06/03 01:00:03;;;;;;;0.85;0.85;;;14.70;42.90;;;12.55;47.39;101872.00;12242846;19;20034;-79
2022/06/03 01:04:34;;;;;;;1.02;1.02;;;14.70;43.00;;;12.50;47.30;101860.91;12241132;19;20023;-78
2022/06/03 01:09:01;;;;;;;0.90;0.90;;;14.70;43.00;;;12.44;47.54;101869.03;12237721;19;20010;-78
2022/06/03 01:13:24;;;;;;;1.10;1.10;;;14.60;43.00;;;12.29;47.34;101854.84;12239435;19;20021;-79
2022/06/03 01:17:37;;;;;;;1.60;1.50;;;14.60;43.20;;;12.42;47.62;101876.09;12237398;19;20135;-79
2022/06/03 01:21:57;;;;;;;1.27;1.17;;;14.50;43.00;;;12.44;47.58;101879.50;12230443;19;20018;-79
2022/06/03 01:26:30;;;;;;;1.17;1.17;;;14.50;43.20;;;12.44;47.49;101870.81;12243824;19;20342;-79
2022/06/03 01:31:11;;;;;;;0.90;0.90;;;14.60;43.20;;;12.38;47.66;101874.56;12240808;19;20011;-78
2022/06/03 01:35:40;;;;;;;1.27;1.23;;;14.60;43.20;;;12.34;47.58;101884.31;12237181;19;20014;-79
2022/06/03 01:40:00;;;;;;;1.35;1.10;;;14.50;43.00;;;12.28;47.70;101878.47;12235747;19;20033;-79
2022/06/03 01:44:32;;;;;;;1.48;1.38;;;14.50;43.00;;;12.21;47.52;101880.53;12231201;19;20468;-79
2022/06/03 01:48:57;;;;;;;1.20;1.10;;;14.40;43.00;;;12.09;47.64;101879.28;12240201;19;20018;-78
2022/06/03 01:53:44;;;;;;;1.13;1.13;;;14.50;43.10;;;11.97;47.68;101868.50;12242642;19;20042;-79
2022/06/03 01:58:07;;;;;;;1.15;1.08;;;14.20;42.80;;;11.84;47.87;101875.97;12233704;19;20018;-78
2022/06/03 02:02:41;;;;;;;1.33;1.10;;;14.10;42.70;;;11.72;47.62;101872.13;12238128;19;20021;-79
2022/06/03 02:07:53;;;;;;;1.25;1.15;;;14.00;43.00;;;11.70;47.64;101869.56;12236032;19;20360;-78
2022/06/03 02:12:30;;;;;;;1.25;1.15;;;13.90;43.20;;;11.57;48.01;101854.44;12235583;19;20086;-79
2022/06/03 02:17:46;;;;;;;1.52;1.42;;;13.80;43.10;;;11.54;47.70;101851.94;12236373;19;20042;-78
2022/06/03 02:22:41;;;;;;;1.67;1.30;;;13.80;43.50;;;11.67;47.88;101874.06;12237000;19;20026;-78
2022/06/03 02:27:04;;;;;;;1.23;1.20;;;13.80;43.50;;;11.68;48.17;101867.91;12245366;19;20002;-78
2022/06/03 02:31:50;;;;;;;1.23;1.05;;;13.80;43.60;;;11.66;48.04;101872.34;12252388;19;20110;-79
2022/06/03 02:36:11;;;;;;;1.48;1.40;;;13.80;43.70;;;11.67;48.09;101874.91;12245106;19;20025;-79
2022/06/03 02:40:34;;;;;;;1.20;1.10;;;13.80;43.60;;;11.61;48.18;101867.34;12252795;19;20019;-79
2022/06/03 02:45:06;;;;;;;1.30;1.20;;;13.80;43.40;;;11.57;48.32;101872.75;12245863;19;20018;-79
2022/06/03 02:49:59;;;;;;;2.20;1.48;;;13.80;43.60;;;11.28;48.00;101828.53;12251207;19;20024;-79
2022/06/03 02:54:34;;;;;;;1.52;1.38;;;13.70;43.70;;;11.48;48.29;101872.22;12249578;19;20015;-79
2022/06/03 02:59:29;;;;;;;1.70;1.40;;;13.70;43.50;;;11.46;48.10;101875.78;12246611;19;20043;-79
2022/06/03 03:03:48;;;;;;;0.98;0.98;;;13.60;43.50;;;11.37;48.23;101869.19;12248551;19;20359;-79
2022/06/03 03:08:39;;;;;;;1.45;1.35;;;13.60;43.50;;;11.23;48.23;101861.00;12246505;19;20038;-79
2022/06/03 03:13:10;;;;;;;5.18;1.58;;;13.50;43.60;;;11.18;48.42;101870.78;12246371;19;20014;-80
2022/06/03 03:17:58;;;;;;;1.30;1.20;;;13.70;43.60;;;11.12;48.40;101871.03;12246290;19;20543;-79
2022/06/03 03:22:24;;;;;;;1.25;1.20;;;13.30;43.70;;;11.04;48.40;101876.56;12246878;19;20011;-79
2022/06/03 03:26:38;;;;;;;3.90;1.48;;;13.30;43.50;;;10.95;48.42;101875.16;12245876;19;20031;-79
2022/06/03 03:30:48;;;;;;;1.85;1.48;;;13.20;43.40;;;10.92;48.40;101871.81;12247525;19;20036;-79
2022/06/03 03:35:07;;;;;;;1.48;1.38;;;13.20;43.50;;;10.59;48.83;101825.16;12244319;19;20022;-79
2022/06/03 03:39:23;;;;;;;1.70;1.25;;;13.30;43.80;;;10.87;48.93;101868.53;12240484;19;20022;-79
2022/06/03 03:44:02;;;;;;;3.50;1.50;;;13.00;43.90;;;10.87;48.96;101885.06;12244907;19;20018;-79
2022/06/03 03:48:52;;;;;;;1.27;1.27;;;13.00;44.20;;;10.69;48.71;101854.38;12248684;19;20018;-79
2022/06/03 03:53:34;;;;;;;1.85;1.40;;;13.00;44.30;;;10.79;48.99;101884.50;12247188;19;20011;-79
2022/06/03 03:57:58;;;;;;;1.58;1.48;;;13.00;44.30;;;10.72;49.09;101880.41;12245749;19;20019;-79
2022/06/03 04:02:30;;;;;;;2.00;1.23;;;12.90;44.30;;;10.76;49.30;101879.38;12244341;19;20006;-80
2022/06/03 04:07:25;;;;;;;1.33;1.30;;;12.90;44.40;;;10.74;49.05;101886.41;12246308;19;20086;-79
2022/06/03 04:11:57;;;;;;;1.40;1.30;;;12.90;44.70;;;10.76;49.39;101888.06;12241558;19;20026;-80
2022/06/03 04:16:44;;;;;;;1.17;1.17;;;12.90;44.50;;;10.69;49.26;101864.84;12237744;19;20101;-79
2022/06/03 04:21:35;;;;;;;1.58;1.48;;;12.90;45.00;;;10.83;49.33;101886.09;12243655;19;20006;-79
2022/06/03 04:25:45;;;;;;;1.15;1.15;;;13.00;45.10;;;10.85;49.20;101892.09;12239793;19;20042;-79
2022/06/03 04:30:08;;;;;;;1.63;1.52;;;13.00;44.80;;;10.77;49.68;101873.25;12243775;19;20011;-79
2022/06/03 04:35:06;;;;;;;1.20;1.20;;;13.00;45.10;;;10.98;49.49;101889.88;12238492;19;20070;-79
2022/06/03 04:40:10;;;;;;;3.63;2.10;;;13.10;45.80;;;10.97;49.60;101885.56;12226902;19;20018;-79
2022/06/03 04:44:29;;;;;;;1.38;1.27;;;13.20;46.00;;;11.14;49.98;101892.75;12235771;19;20014;-79
2022/06/03 04:49:33;;;;;;;1.60;1.50;;;13.30;45.90;;;11.24;49.96;101896.72;12235957;19;20010;-79
2022/06/03 04:54:30;;;;;;;1.50;1.40;;;13.30;46.80;;;11.45;49.81;101903.72;12233252;19;20024;-79
2022/06/03 04:58:58;;;;;;;1.45;1.35;;;13.40;47.00;;;11.62;50.50;101905.66;12233321;19;20026;-79
2022/06/03 05:03:49;;;;;;;1.67;1.17;;;13.60;47.20;;;11.80;50.41;101903.19;12237511;19;20024;-79
2022/06/03 05:08:27;;;;;;;1.70;1.50;;;13.80;47.90;;;11.98;50.47;101907.69;12238578;19;20018;-79
2022/06/03 05:13:18;;;;;;;2.00;1.80;;;13.90;47.80;;;12.13;50.59;101904.44;12236620;19;20021;-79
2022/06/03 05:17:51;;;;;;;2.20;1.80;;;14.10;48.10;;;12.30;50.88;101908.09;12232621;19;20023;-79
2022/06/03 05:21:56;;;;;;;1.70;1.52;;;14.30;48.50;;;12.45;50.93;101907.44;12236061;19;20612;-79
2022/06/03 05:26:53;;;;;;;1.60;1.50;;;14.60;48.60;;;12.64;51.15;101910.09;12232745;19;20014;-80
2022/06/03 05:31:44;;;;;;;1.80;1.60;;;14.60;49.20;;;12.95;51.18;101911.28;12234249;19;20011;-80
2022/06/03 05:36:18;;;;;;;1.48;1.25;;;14.80;49.60;;;13.31;51.51;101910.53;12231894;19;20031;-80
2022/06/03 05:40:43;;;;;;;1.30;1.20;;;15.00;50.20;;;13.68;51.35;101902.56;12236874;19;20077;-80
2022/06/03 05:45:34;;;;;;;1.60;1.48;;;15.30;49.50;;;14.12;51.41;101893.38;12233219;19;20038;-79
2022/06/03 05:49:57;;;;;;;2.33;1.50;;;15.70;50.20;;;14.68;51.41;101894.00;12233200;19;20502;-79
2022/06/03 05:54:33;;;;;;;1.20;1.20;;;16.10;50.20;;;15.17;51.26;101907.94;12235231;19;20018;-78
2022/06/03 05:59:02;;;;;;;1.75;1.63;;;16.60;49.70;;;15.54;50.92;101889.22;12224795;19;20368;-78
2022/06/03 06:03:37;;;;;;;4.45;2.10;;;17.00;48.60;;;15.98;50.45;101897.19;12232748;19;20034;-77
2022/06/03 06:08:03;;;;;;;2.85;2.50;;;17.40;47.80;;;16.41;50.20;101896.41;12231384;19;20047;-77
2022/06/03 06:12:24;;;;;;;2.33;2.10;;;17.90;47.30;;;16.76;50.10;101897.72;12236102;19;20085;-77
2022/06/03 06:16:40;;;;;;;2.13;1.92;;;18.40;46.90;;;17.11;49.89;101888.53;12230661;19;20021;-78
2022/06/03 06:20:54;;;;;;;1.98;1.63;;;18.70;46.10;;;17.38;49.57;101878.00;12229772;19;20018;-77
2022/06/03 06:25:19;;;;;;;2.08;1.92;;;18.90;45.80;;;17.75;49.36;101875.56;12230639;19;20014;-78
2022/06/03 06:29:48;;;;;;;1.40;1.30;;;19.30;45.50;;;18.05;48.81;101878.78;12231422;19;20019;-78
2022/06/03 06:34:28;;;;;;;1.55;1.15;;;19.60;45.00;;;18.30;48.74;101885.88;12231741;19;20010;-78
2022/06/03 06:38:57;;;;;;;1.23;1.13;;;19.90;44.30;;;18.56;48.69;101872.63;12229521;19;20018;-77
2022/06/03 06:43:27;;;;;;;1.33;1.25;;;20.20;44.30;;;18.71;48.16;101866.28;12233269;19;20018;-78
2022/06/03 06:47:37;;;;;;;3.55;1.98;;;20.40;43.90;;;18.96;47.88;101864.53;12230479;19;20018;-78
2022/06/03 06:52:27;;;;;;;1.13;1.13;;;20.60;43.30;;;19.11;47.81;101865.19;12231891;19;20018;-78
2022/06/03 06:56:53;;;;;;;1.45;1.20;;;20.80;42.80;;;19.22;47.58;101867.91;12231542;19;20042;-78
2022/06/03 07:00:59;;;;;;;1.07;1.07;;;21.00;42.90;;;19.31;47.54;101856.66;12227523;19;20011;-78
2022/06/03 07:05:16;;;;;;;1.27;1.17;;;21.10;42.70;;;19.55;46.97;101863.72;12228177;19;20015;-78
2022/06/03 07:09:46;;;;;;;0.85;0.85;;;21.30;42.40;;;19.71;46.92;101848.38;12234306;19;20468;-78
2022/06/03 07:13:59;;;;;;;1.20;1.10;;;21.40;42.00;;;19.66;46.44;101818.75;12238541;19;20018;-78
2022/06/03 07:22:49;;;;;;;1.02;1.00;;;21.70;40.90;;;20.11;46.25;101840.84;12240885;19;20015;-78
2022/06/03 07:26:59;;;;;;;0.90;0.90;;;22.00;41.20;;;20.31;46.08;101839.31;12242781;19;20025;-78
2022/06/03 07:31:36;;;;;;;1.25;0.98;;;22.00;40.70;;;20.54;45.47;101844.63;12237443;19;20294;-78
2022/06/03 07:35:57;;;;;;;0.90;0.90;;;22.20;40.90;;;20.75;45.40;101832.28;12235762;19;20511;-78
2022/06/03 07:40:29;;;;;;;2.80;1.05;;;22.40;40.70;;;20.87;45.58;101824.28;12238920;19;20022;-78
2022/06/03 07:45:11;;;;;;;0.82;0.77;;;22.60;40.50;;;21.19;44.97;101846.41;12235369;19;20555;-79
2022/06/03 07:49:15;;;;;;;1.08;0.98;;;22.80;39.70;;;21.02;44.75;101791.19;12244868;19;20360;-77
2022/06/03 07:53:46;;;;;;;1.08;1.00;;;23.00;39.60;;;21.28;44.47;101806.75;12238037;19;20014;-78
2022/06/03 07:58:02;;;;;;;1.60;1.00;;;23.00;39.20;;;21.48;44.48;101823.72;12239458;19;20010;-78
2022/06/03 08:02:18;;;;;;;1.13;0.90;;;23.20;38.90;;;21.55;43.84;101806.28;12235165;19;20046;-77
2022/06/03 08:11:05;;;;;;;;;;;23.40;38.70;;;21.87;44.53;101809.72;12243488;19;20014;-78
2022/06/03 08:15:28;;;;;;;1.17;0.93;;;23.50;39.80;;;22.03;44.09;101811.03;12238376;19;19942;-78
2022/06/03 08:19:34;;;;;;;0.95;0.95;;;23.60;38.50;;;22.13;43.72;101798.63;12240015;19;20382;-78
2022/06/03 08:23:37;;;;;;;1.40;1.30;;;23.90;38.70;;;22.31;43.50;101794.38;12235299;19;20041;-77
2022/06/03 08:27:39;;;;;;;1.52;1.13;;;24.10;38.50;;;22.48;42.99;101803.53;12239129;19;20017;-78
2022/06/03 08:31:43;;;;;;;1.42;1.10;;;24.20;37.90;;;22.58;42.89;101805.41;12236591;19;20014;-77
2022/06/03 08:35:47;;;;;;;3.03;1.30;;;24.30;37.60;;;22.44;42.62;101748.91;12240085;19;20022;-78
2022/06/03 08:39:53;;;;;;;1.65;1.23;;;24.40;37.40;;;22.89;42.63;101791.00;12234819;19;20468;-78
2022/06/03 08:44:23;;;;;;;1.67;1.00;;;24.50;37.60;;;23.16;42.15;101808.16;12236936;19;20044;-78
2022/06/03 08:48:35;;;;;;;1.70;1.08;;;24.70;36.90;;;23.16;41.66;101794.81;12239028;19;20015;-77
2022/06/03 08:52:55;;;;;;;1.05;1.05;;;24.90;37.00;;;23.37;41.43;101813.34;12238629;19;20018;-78
2022/06/03 08:57:16;;;;;;;1.15;1.05;;;25.00;36.70;;;23.45;41.42;101805.47;12235757;19;20018;-78
2022/06/03 09:01:48;;;;;;;2.20;1.20;;;25.10;36.60;;;23.68;41.24;101802.47;12240139;19;20010;-78
2022/06/03 09:06:06;;;;;;;0.90;0.90;;;25.20;36.70;;;23.72;41.05;101783.41;12234884;19;20020;-78
2022/06/03 09:10:30;;;;;;;0.88;0.88;;;25.40;36.20;;;23.88;40.91;101781.97;12238632;19;20011;-78
2022/06/03 09:14:33;;;;;;;1.15;0.85;;;25.50;36.10;;;23.86;40.35;101760.75;12233431;19;20025;-78
2022/06/03 09:19:05;;;;;;;1.00;1.00;;;25.60;35.30;;;23.94;40.60;101771.53;12236496;19;20013;-77
2022/06/03 09:23:11;;;;;;;1.10;0.90;;;25.70;35.60;;;24.02;40.53;101763.63;12235566;19;20021;-78
2022/06/03 09:27:16;;;;;;;0.85;0.85;;;25.80;35.50;;;24.17;40.29;101777.34;12237091;19;20034;-78
2022/06/03 09:31:20;;;;;;;0.73;0.60;;;25.90;35.70;;;24.13;40.15;101756.41;12235330;19;20027;-78
2022/06/03 09:35:26;;;;;;;0.80;0.80;;;25.90;35.80;;;24.00;40.05;101730.91;12234714;19;20389;-78
2022/06/03 09:39:31;;;;;;;0.93;0.88;;;26.00;35.60;;;24.23;39.86;101763.38;12231488;19;20110;-78
2022/06/03 09:43:37;;;;;;;1.00;1.00;;;26.00;35.10;;;24.28;39.86;101749.59;12234051;19;20018;-78
2022/06/03 09:47:39;;;;;;;1.27;1.17;;;26.10;35.30;;;24.40;39.52;101750.22;12234153;19;20471;-78
2022/06/03 09:51:56;;;;;;;0.88;0.88;;;26.10;35.20;;;24.18;38.87;101698.09;12235826;19;20010;-78
2022/06/03 09:56:04;;;;;;;2.17;0.90;;;26.40;34.70;;;24.46;39.30;101731.78;12232623;19;20041;-78
2022/06/03 10:00:21;;;;;;;1.23;1.13;;;26.20;35.10;;;24.44;39.04;101692.91;12232649;19;20303;-78
2022/06/03 10:04:24;;;;;;;1.02;1.02;;;26.30;34.90;;;24.73;38.83;101719.38;12233379;19;20031;-78
2022/06/03 10:12:53;;;;;;;1.25;1.15;;;26.50;34.70;;;25.00;38.45;101722.94;12233078;19;20235;-77
2022/06/03 10:16:55;;;;;;;0.90;0.90;;;26.60;34.40;;;24.99;38.68;101719.44;12230548;19;20550;-78
2022/06/03 10:21:16;;;;;;;1.75;1.15;;;26.70;34.70;;;25.13;37.69;101729.56;12234766;19;20483;-79
2022/06/03 10:25:18;;;;;;;0.90;0.90;;;26.70;34.10;;;25.12;38.35;101711.03;12230293;19;20003;-78
2022/06/03 10:29:25;;;;;;;1.00;1.00;;;26.80;34.40;;;25.04;37.95;101693.09;12235422;19;20021;-79
2022/06/03 10:33:27;;;;;;;1.15;1.00;;;26.80;34.30;;;25.19;37.97;101705.91;12231802;19;20405;-78
2022/06/03 10:37:29;;;;;;;1.00;0.90;;;26.90;34.30;;;25.26;37.83;101701.63;12233281;19;20022;-78
2022/06/03 10:41:39;;;;;;;0.95;0.95;;;26.90;34.30;;;25.39;37.72;101702.88;12231414;19;20085;-77
2022/06/03 10:45:41;;;;;;;1.00;1.00;;;27.00;34.40;;;25.51;37.58;101691.91;12229784;19;20007;-78
2022/06/03 10:49:59;;;;;;;0.95;0.95;;;27.10;34.20;;;25.74;37.02;101711.75;12244696;19;20090;-78
2022/06/03 11:02:43;;;;;;;1.33;0.90;;;27.50;34.10;;;26.01;37.02;101669.75;12246177;19;20018;-79
2022/06/03 11:06:45;;;;;;;0.82;0.82;;;27.60;33.50;;;25.92;36.71;101625.19;12242556;19;20094;-79
2022/06/03 11:10:57;;;;;;;1.00;0.93;;;27.80;33.10;;;26.32;36.01;101695.91;12245836;19;20038;-79
2022/06/03 11:15:01;;;;;;;1.27;0.90;;;27.80;33.20;;;26.00;35.96;101620.69;12241460;19;20049;-80
2022/06/03 11:19:19;;;;;;;1.10;1.00;;;27.90;33.20;;;26.37;35.71;101662.28;12238378;19;20490;-80
2022/06/03 11:23:21;;;;;;;4.95;0.93;;;27.90;32.80;;;26.42;36.03;101659.09;12239336;19;20007;-79
2022/06/03 11:27:35;;;;;;;0.80;0.80;;;28.10;33.00;;;26.42;35.75;101651.06;12242918;19;20113;-79
2022/06/03 11:31:42;;;;;;;0.90;0.90;;;28.10;32.80;;;26.38;35.56;101639.84;12242369;19;20018;-79
2022/06/03 11:36:00;;;;;;;0.75;0.70;;;28.10;32.60;;;26.47;35.62;101630.81;12244906;19;20366;-79
2022/06/03 11:40:15;;;;;;;0.80;0.80;;;28.20;32.90;;;26.62;35.32;101622.13;12238233;19;20025;-80
2022/06/03 11:44:33;;;;;;;0.85;0.85;;;28.20;32.60;;;26.77;35.22;101619.63;12241225;19;20006;-78
2022/06/03 11:48:43;;;;;;;0.93;0.90;;;28.40;32.70;;;26.80;34.96;101609.38;12242021;19;20470;-78
2022/06/03 11:52:46;;;;;;;2.97;1.02;;;28.40;32.20;;;26.80;34.59;101601.34;12241586;19;20090;-78
2022/06/03 11:56:49;;;;;;;1.02;0.93;;;28.40;32.10;;;26.70;35.06;101576.56;12240785;19;20018;-78
2022/06/03 12:00:59;;;;;;;1.00;1.00;;;28.40;32.50;;;26.95;34.08;101590.78;12236807;19;20018;-78
2022/06/03 12:05:19;;;;;;;2.13;0.70;;;28.40;31.60;;;26.87;34.18;101566.66;12236775;19;20018;-78
2022/06/03 12:09:49;;;;;;;2.17;0.68;;;28.50;31.70;;;26.95;34.43;101569.31;12242029;19;20030;-79
2022/06/03 12:14:12;;;;;;;0.80;0.80;;;28.60;32.10;;;27.19;34.05;101584.50;12238270;19;20018;-79
2022/06/03 12:18:16;;;;;;;0.80;0.80;;;28.70;32.00;;;27.27;34.36;101584.47;12238233;19;20022;-78
2022/06/03 12:22:33;;;;;;;0.80;0.80;;;28.70;31.90;;;27.29;33.75;101569.06;12240633;19;20353;-79
2022/06/03 12:26:35;;;;;;;0.82;0.82;;;28.80;31.70;;;27.34;33.24;101569.38;12240484;19;20039;-78
2022/06/03 12:31:02;;;;;;;0.70;0.70;;;28.90;31.30;;;27.34;33.19;101563.19;12236919;19;20828;-78
2022/06/03 12:35:42;;;;;;;1.08;0.93;;;28.90;31.30;;;27.46;33.22;101569.81;12237224;19;20002;-78
2022/06/03 12:39:50;;;;;;;0.90;0.90;;;28.90;31.20;;;27.55;32.98;101562.56;12236330;19;20344;-78
2022/06/03 12:43:57;;;;;;;0.88;0.70;;;29.00;31.10;;;27.62;33.08;101541.22;12240706;19;20495;-78
2022/06/03 12:48:00;;;;;;;0.85;0.85;;;29.10;31.40;;;27.70;32.86;101536.63;12238910;19;20014;-79
2022/06/03 12:52:08;;;;;;;0.70;0.70;;;29.20;30.90;;;27.65;32.52;101517.53;12239384;19;20727;-79
2022/06/03 12:56:42;;;;;;;0.80;0.80;;;29.30;31.00;;;27.77;32.51;101521.50;12236516;19;20393;-80
2022/06/03 13:00:58;;;;;;;0.80;0.80;;;29.30;31.00;;;27.76;32.44;101498.38;12235443;19;20017;-80
2022/06/03 13:05:23;;;;;;;0.73;0.73;;;29.30;30.80;;;27.61;32.09;101465.25;12233866;19;20069;-80
2022/06/03 13:10:03;;;;;;;0.75;0.65;;;29.40;30.00;;;27.62;32.24;101476.81;12232834;19;20046;-80
2022/06/03 13:14:28;;;;;;;0.80;0.80;;;29.30;30.60;;;27.65;32.35;101477.28;12233013;19;20014;-80
2022/06/03 13:18:49;;;;;;;0.80;0.80;;;29.30;30.60;;;27.76;32.24;101482.25;12228798;19;20367;-80
2022/06/03 13:22:57;;;;;;;0.95;0.90;;;29.30;30.70;;;27.59;32.40;101435.91;12233828;19;20089;-80
2022/06/03 13:27:24;;;;;;;1.55;1.00;;;29.40;30.80;;;27.92;31.77;101473.28;12231948;19;20360;-80
2022/06/03 13:31:40;;;;;;;0.77;0.77;;;29.50;30.50;;;28.02;31.96;101486.44;12232172;19;20411;-80
2022/06/03 13:36:04;;;;;;;0.90;0.90;;;29.50;30.40;;;27.99;31.69;101476.88;12227706;19;20018;-81
2022/06/03 13:40:17;;;;;;;0.68;0.68;;;29.60;30.50;;;28.13;31.59;101485.16;12229420;19;20353;-80
2022/06/03 13:44:19;;;;;;;0.80;0.80;;;29.60;30.40;;;28.22;31.63;101467.97;12233520;19;20021;-80
2022/06/03 13:48:44;;;;;;;1.05;0.98;;;29.70;30.40;;;28.27;31.48;101462.03;12234944;19;20387;-80
2022/06/03 13:52:46;;;;;;;2.13;1.02;;;29.80;30.40;;;28.39;31.34;101469.47;12232112;19;20027;-80
2022/06/03 13:57:14;;;;;;;1.25;0.80;;;29.80;30.30;;;28.39;31.26;101456.03;12236421;19;20014;-80
2022/06/03 14:01:32;;;;;;;1.20;0.90;;;29.70;30.00;;;28.36;30.56;101453.72;12233647;19;20038;-80
2022/06/03 14:05:44;;;;;;;0.85;0.85;;;29.90;29.50;;;28.35;31.00;101456.56;12229826;19;20023;-80
2022/06/03 14:09:50;;;;;;;0.80;0.80;;;29.90;30.00;;;28.30;31.08;101440.16;12232083;19;20018;-81
2022/06/03 14:14:16;;;;;;;0.93;0.80;;;29.90;29.90;;;28.27;30.91;101445.91;12227955;19;20014;-81
2022/06/03 14:19:08;;;;;;;0.90;0.90;;;29.80;29.70;;;28.31;30.77;101439.16;12232885;19;20531;-79
2022/06/03 14:23:37;;;;;;;1.02;0.93;;;29.80;30.10;;;28.28;30.64;101416.19;12226830;19;20011;-80
2022/06/03 14:28:09;;;;;;;0.70;0.70;;;29.80;30.00;;;28.40;30.58;101451.50;12231714;19;20010;-81
2022/06/03 14:32:20;;;;;;;1.00;0.88;;;29.90;29.80;;;28.02;30.59;101395.97;12230708;19;20014;-80
2022/06/03 14:36:25;;;;;;;0.88;0.88;;;29.90;29.70;;;28.24;30.33;101421.06;12233507;19;20018;-79
2022/06/03 14:40:34;;;;;;;0.90;0.90;;;29.80;29.70;;;28.21;30.09;101402.66;12230225;19;20006;-80
2022/06/03 14:44:41;;;;;;;0.90;0.90;;;29.80;29.50;;;28.40;30.35;101411.19;12227523;19;20011;-80
2022/06/03 14:48:54;;;;;;;2.25;0.98;;;29.90;29.70;;;28.43;29.99;101408.97;12232489;19;20036;-80
2022/06/03 14:53:35;;;;;;;0.95;0.95;;;29.90;29.50;;;28.43;30.20;101397.41;12229340;19;20033;-80
2022/06/03 14:57:49;;;;;;;2.90;0.90;;;29.90;29.60;;;28.53;29.75;101414.09;12225269;19;20023;-81
2022/06/03 15:02:34;;;;;;;0.77;0.77;;;30.20;29.60;;;28.42;29.80;101390.34;12229234;19;20511;-81
2022/06/03 15:06:54;;;;;;;0.80;0.80;;;30.00;29.70;;;28.55;29.86;101404.00;12223671;19;20434;-81
2022/06/03 15:11:29;;;;;;;1.13;0.80;;;30.00;29.60;;;28.58;29.59;101400.09;12229987;19;20483;-81
2022/06/03 15:15:36;;;;;;;0.80;0.80;;;30.00;29.50;;;28.57;29.60;101366.16;12217637;19;20024;-79
2022/06/03 15:19:44;;;;;;;0.75;0.75;;;30.30;29.60;;;28.72;29.90;101384.97;12221624;19;20296;-81
2022/06/03 15:23:53;;;;;;;1.10;1.00;;;30.10;29.60;;;28.68;29.66;101365.69;12222650;19;20014;-81
2022/06/03 15:27:57;;;;;;;1.40;0.93;;;30.20;29.60;;;28.79;29.60;101370.59;12227284;19;20011;-81
2022/06/03 15:32:01;;;;;;;0.68;0.68;;;30.30;29.50;;;28.83;29.61;101371.84;12225626;19;20031;-81
2022/06/03 15:36:17;;;;;;;0.63;0.60;;;30.30;29.80;;;28.87;29.19;101378.53;12234912;19;20026;-81
2022/06/03 15:40:39;;;;;;;1.13;1.13;;;30.30;29.40;;;28.84;29.25;101370.84;12235133;19;20078;-79
2022/06/03 15:44:43;;;;;;;1.10;1.00;;;30.30;29.30;;;28.80;29.01;101355.28;12231718;19;20021;-81
2022/06/03 15:49:02;;;;;;;1.20;0.77;;;30.40;29.20;;;28.96;29.21;101379.25;12237365;19;20090;-81
2022/06/03 15:53:05;;;;;;;1.00;1.00;;;30.40;29.30;;;28.94;29.29;101375.91;12235455;19;20042;-81
2022/06/03 15:57:31;;;;;;;1.00;1.00;;;30.40;29.30;;;28.87;28.58;101366.97;12237210;19;20149;-81
2022/06/03 16:01:44;;;;;;;;;;;30.40;29.20;;;28.87;29.84;101375.03;12234699;19;20022;-79
2022/06/03 16:06:29;;;;;;;0.73;0.70;;;30.40;29.90;;;28.68;29.57;101363.84;12242136;19;19914;-81
2022/06/03 16:10:52;;;;;;;1.60;0.75;;;30.30;29.30;;;28.71;29.19;101364.50;12241062;19;20524;-81
2022/06/03 16:15:12;;;;;;;0.90;0.90;;;30.20;29.20;;;28.57;29.04;101344.66;12243710;19;20006;-80
2022/06/03 16:20:22;;;;;;;1.80;0.90;;;30.10;29.10;;;28.71;29.10;101362.63;12236692;19;20025;-81
2022/06/03 16:24:43;;;;;;;0.90;0.90;;;30.10;29.40;;;28.71;29.32;101353.75;12238926;19;20034;-81
2022/06/03 16:29:26;;;;;;;2.55;2.00;;;30.20;29.20;;;28.68;28.82;101346.88;12239537;19;20011;-81
2022/06/03 16:33:48;;;;;;;2.17;1.90;;;30.10;29.20;;;28.64;28.96;101343.72;12236944;19;20018;-80
2022/06/03 16:38:36;;;;;;;1.63;1.45;;;30.10;29.20;;;28.62;29.05;101336.88;12241089;19;20023;-80
2022/06/03 16:43:10;;;;;;;1.38;1.27;;;30.10;29.30;;;28.61;28.88;101329.84;12238713;19;20011;-80
2022/06/03 16:47:47;;;;;;;1.50;1.40;;;30.00;29.20;;;28.48;28.92;101321.63;12240648;19;20019;-80
2022/06/03 16:51:56;;;;;;;0.90;0.77;;;30.00;29.30;;;28.50;29.01;101333.84;12238779;19;20018;-80
2022/06/03 16:55:59;;;;;;;1.13;0.90;;;30.00;29.10;;;28.39;28.99;101316.31;12241860;19;20090;-80
2022/06/03 17:00:12;;;;;;;1.38;1.27;;;29.90;29.10;;;28.43;29.28;101324.84;12236391;19;20018;-79
2022/06/03 17:04:19;;;;;;;0.88;0.88;;;29.90;29.40;;;28.31;28.89;101316.41;12236854;19;20014;-81
2022/06/03 17:08:43;;;;;;;0.90;0.90;;;29.90;29.10;;;28.37;28.67;101321.03;12236308;19;20025;-81
2022/06/03 17:12:45;;;;;;;1.00;1.00;;;29.80;29.00;;;28.34;29.06;101318.72;12235253;19;20029;-81
2022/06/03 17:17:06;;;;;;;1.02;0.95;;;29.90;29.50;;;28.22;28.90;101294.22;12239281;19;20027;-81
2022/06/03 17:21:47;;;;;;;1.30;1.20;;;29.80;29.60;;;28.36;29.07;101316.69;12227276;19;20480;-81
2022/06/03 17:25:58;;;;;;;2.15;0.93;;;29.80;29.70;;;28.08;29.35;101278.91;12235443;19;20037;-81
2022/06/03 17:30:24;;;;;;;1.00;1.00;;;29.80;29.90;;;28.19;29.23;101316.06;12238544;19;20015;-81
2022/06/03 17:35:04;;;;;;;1.85;1.00;;;29.80;29.80;;;28.05;29.30;101327.63;12235840;19;20010;-80
2022/06/03 17:39:33;;;;;;;0.85;0.85;;;29.60;29.60;;;27.87;29.25;101333.38;12236591;19;20011;-80
2022/06/03 17:43:59;;;;;;;1.42;1.13;;;29.60;29.60;;;27.64;29.41;101332.56;12237386;19;20014;-80
2022/06/03 17:48:21;;;;;;;1.98;1.30;;;29.30;29.40;;;27.46;29.38;101336.38;12234810;19;20413;-80
2022/06/03 17:57:04;;;;;;;1.13;0.90;;;29.10;29.60;;;27.08;29.64;101314.03;12232654;19;20677;-80
2022/06/03 18:01:07;;;;;;;1.02;1.00;;;28.90;29.70;;;27.15;29.44;101333.78;12214471;19;20014;-79
2022/06/03 18:05:27;;;;;;;1.23;1.23;;;28.80;29.80;;;26.96;29.33;101318.16;12226675;19;20019;-80
2022/06/03 18:09:47;;;;;;;1.05;0.95;;;28.70;29.80;;;26.90;29.55;101335.78;12236116;19;20011;-80
2022/06/03 18:13:53;;;;;;;0.98;0.98;;;28.50;29.90;;;26.70;29.96;101320.13;12229048;19;20010;-80
2022/06/03 18:18:01;;;;;;;4.22;0.90;;;28.50;29.90;;;26.52;29.91;101321.41;12228848;19;20033;-81
2022/06/03 18:22:24;;;;;;;1.13;1.00;;;28.40;30.20;;;26.52;29.91;101341.00;12231689;19;20049;-80
2022/06/03 18:26:34;;;;;;;1.10;1.00;;;28.20;29.90;;;26.38;30.21;101326.47;12235870;19;20022;-81